Terminal Aerodrome Forecast
Issued by NWS

Home | Current Version | Previous Version | Text Only | Print | Product List | Glossary On
Versions: 1 2 3 4 5 6 7 8 9 10 11 12 13 14 15
000
FTUS44 KLZK 261700 RRA
TAFHRO
TAF
KHRO 261749Z 2618/2718 16014KT P6SM SCT015 BKN035
     FM262100 16012KT P6SM VCSH BKN015
     FM270100 14009KT 4SM -RADZ OVC012 WS020/19040KT
     FM271100 25005KT 6SM BR VCSH OVC007
     FM271500 30007KT 6SM BR OVC012=

USA.gov is the U.S. government's official web portal to all federal, state and local government web resources and services.